sensor_id;sensor_type;location;lat;lon;timestamp;pressure;altitude;pressure_sealevel;temperature;humidity
6851;BME280;3464;42.728;23.296;2023-04-02T00:01:46;94390.27;;;11.82;63.46
6851;BME280;3464;42.728;23.296;2023-04-02T00:04:36;94384.97;;;11.66;63.68
6851;BME280;3464;42.728;23.296;2023-04-02T00:07:28;94384.20;;;11.56;64.02
6851;BME280;3464;42.728;23.296;2023-04-02T00:10:26;94379.83;;;11.76;63.70
6851;BME280;3464;42.728;23.296;2023-04-02T00:13:32;94373.66;;;11.61;64.16
6851;BME280;3464;42.728;23.296;2023-04-02T00:16:21;94377.55;;;11.93;63.45
6851;BME280;3464;42.728;23.296;2023-04-02T00:19:13;94380.72;;;11.72;63.91
6851;BME280;3464;42.728;23.296;2023-04-02T00:22:04;94381.86;;;11.39;64.21
6851;BME280;3464;42.728;23.296;2023-04-02T00:24:53;94373.11;;;11.28;64.08
6851;BME280;3464;42.728;23.296;2023-04-02T00:27:42;94371.64;;;11.96;62.27
6851;BME280;3464;42.728;23.296;2023-04-02T00:30:32;94370.94;;;11.84;61.84
6851;BME280;3464;42.728;23.296;2023-04-02T00:33:11;94367.42;;;11.99;61.60
6851;BME280;3464;42.728;23.296;2023-04-02T00:35:35;94370.30;;;12.03;60.96
6851;BME280;3464;42.728;23.296;2023-04-02T00:38:01;94369.70;;;12.17;60.64
6851;BME280;3464;42.728;23.296;2023-04-02T00:40:30;94368.70;;;12.30;60.33
6851;BME280;3464;42.728;23.296;2023-04-02T00:42:58;94369.53;;;12.33;59.98
6851;BME280;3464;42.728;23.296;2023-04-02T00:45:27;94373.02;;;12.22;60.30
6851;BME280;3464;42.728;23.296;2023-04-02T00:47:53;94372.75;;;12.09;60.97
6851;BME280;3464;42.728;23.296;2023-04-02T00:50:25;94378.68;;;11.67;62.44
6851;BME280;3464;42.728;23.296;2023-04-02T00:52:51;94380.05;;;11.52;63.13
6851;BME280;3464;42.728;23.296;2023-04-02T00:55:19;94381.02;;;10.83;65.39
6851;BME280;3464;42.728;23.296;2023-04-02T00:57:44;94381.38;;;10.91;65.46
6851;BME280;3464;42.728;23.296;2023-04-02T01:00:26;94381.42;;;10.82;65.78
6851;BME280;3464;42.728;23.296;2023-04-02T01:03:26;94382.57;;;11.03;65.51
6851;BME280;3464;42.728;23.296;2023-04-02T01:05:54;94384.86;;;10.71;65.98
6851;BME280;3464;42.728;23.296;2023-04-02T01:08:25;94390.77;;;10.67;66.44
6851;BME280;3464;42.728;23.296;2023-04-02T01:13:45;94398.28;;;10.70;66.83
6851;BME280;3464;42.728;23.296;2023-04-02T01:16:42;94395.62;;;10.17;67.38
6851;BME280;3464;42.728;23.296;2023-04-02T01:22:13;94395.14;;;10.32;69.57
6851;BME280;3464;42.728;23.296;2023-04-02T01:24:39;94401.52;;;10.01;72.05
6851;BME280;3464;42.728;23.296;2023-04-02T01:27:15;94401.41;;;10.39;70.20
6851;BME280;3464;42.728;23.296;2023-04-02T01:29:43;94406.19;;;10.85;69.21
6851;BME280;3464;42.728;23.296;2023-04-02T01:32:10;94400.20;;;11.01;68.52
6851;BME280;3464;42.728;23.296;2023-04-02T01:34:36;94401.36;;;11.12;67.60
6851;BME280;3464;42.728;23.296;2023-04-02T01:37:13;94406.56;;;10.92;68.50
6851;BME280;3464;42.728;23.296;2023-04-02T01:39:59;94410.06;;;10.65;69.81
6851;BME280;3464;42.728;23.296;2023-04-02T01:42:33;94409.85;;;10.99;68.80
6851;BME280;3464;42.728;23.296;2023-04-02T01:45:03;94408.74;;;10.77;69.22
6851;BME280;3464;42.728;23.296;2023-04-02T01:47:29;94406.61;;;10.83;69.01
6851;BME280;3464;42.728;23.296;2023-04-02T01:49:57;94409.22;;;10.66;70.35
6851;BME280;3464;42.728;23.296;2023-04-02T01:52:31;94400.58;;;11.04;69.10
6851;BME280;3464;42.728;23.296;2023-04-02T01:54:53;94404.17;;;10.72;70.02
6851;BME280;3464;42.728;23.296;2023-04-02T01:57:20;94401.28;;;10.62;70.74
6851;BME280;3464;42.728;23.296;2023-04-02T01:59:48;94394.05;;;10.78;70.79
6851;BME280;3464;42.728;23.296;2023-04-02T02:02:16;94393.69;;;10.71;70.58
6851;BME280;3464;42.728;23.296;2023-04-02T02:04:44;94397.42;;;10.75;70.38
6851;BME280;3464;42.728;23.296;2023-04-02T02:07:13;94394.41;;;10.89;69.93
6851;BME280;3464;42.728;23.296;2023-04-02T02:09:38;94384.69;;;10.99;69.30
6851;BME280;3464;42.728;23.296;2023-04-02T02:12:05;94381.71;;;11.04;68.99
6851;BME280;3464;42.728;23.296;2023-04-02T02:14:33;94384.45;;;11.29;68.17
6851;BME280;3464;42.728;23.296;2023-04-02T02:17:00;94390.28;;;10.78;68.58
6851;BME280;3464;42.728;23.296;2023-04-02T02:19:35;94378.74;;;11.06;68.64
6851;BME280;3464;42.728;23.296;2023-04-02T02:24:47;94376.31;;;10.94;68.40
6851;BME280;3464;42.728;23.296;2023-04-02T02:27:38;94371.78;;;11.37;67.44
6851;BME280;3464;42.728;23.296;2023-04-02T02:30:05;94367.80;;;11.57;66.29
6851;BME280;3464;42.728;23.296;2023-04-02T02:32:34;94373.55;;;11.25;66.20
6851;BME280;3464;42.728;23.296;2023-04-02T02:35:06;94385.59;;;11.41;66.04
6851;BME280;3464;42.728;23.296;2023-04-02T02:37:35;94385.94;;;10.97;67.16
6851;BME280;3464;42.728;23.296;2023-04-02T02:40:02;94393.41;;;11.11;67.05
6851;BME280;3464;42.728;23.296;2023-04-02T02:42:35;94378.80;;;11.01;67.40
6851;BME280;3464;42.728;23.296;2023-04-02T02:45:04;94388.91;;;10.93;67.39
6851;BME280;3464;42.728;23.296;2023-04-02T02:47:32;94384.22;;;11.03;67.16
6851;BME280;3464;42.728;23.296;2023-04-02T02:50:01;94385.77;;;10.61;68.18
6851;BME280;3464;42.728;23.296;2023-04-02T02:52:29;94383.14;;;10.78;68.07
6851;BME280;3464;42.728;23.296;2023-04-02T02:54:56;94392.70;;;10.91;67.78
6851;BME280;3464;42.728;23.296;2023-04-02T02:57:24;94388.28;;;10.64;68.28
6851;BME280;3464;42.728;23.296;2023-04-02T02:59:48;94383.16;;;10.75;67.69
6851;BME280;3464;42.728;23.296;2023-04-02T03:02:15;94382.84;;;10.57;68.12
6851;BME280;3464;42.728;23.296;2023-04-02T03:04:44;94384.88;;;10.71;67.83
6851;BME280;3464;42.728;23.296;2023-04-02T03:07:08;94386.64;;;10.51;67.78
6851;BME280;3464;42.728;23.296;2023-04-02T03:09:40;94388.75;;;10.54;67.99
6851;BME280;3464;42.728;23.296;2023-04-02T03:15:50;94395.38;;;10.70;67.11
6851;BME280;3464;42.728;23.296;2023-04-02T03:17:27;94393.07;;;10.27;68.45
6851;BME280;3464;42.728;23.296;2023-04-02T03:19:56;94397.09;;;10.59;67.63
6851;BME280;3464;42.728;23.296;2023-04-02T03:22:24;94396.66;;;10.66;67.30
6851;BME280;3464;42.728;23.296;2023-04-02T03:24:54;94398.73;;;10.66;67.45
6851;BME280;3464;42.728;23.296;2023-04-02T03:27:21;94398.39;;;10.55;67.67
6851;BME280;3464;42.728;23.296;2023-04-02T03:32:33;94387.22;;;10.96;66.18
6851;BME280;3464;42.728;23.296;2023-04-02T03:35:07;94393.11;;;10.95;65.96
6851;BME280;3464;42.728;23.296;2023-04-02T03:37:40;94393.58;;;10.87;65.82
6851;BME280;3464;42.728;23.296;2023-04-02T03:40:14;94401.16;;;10.85;65.72
6851;BME280;3464;42.728;23.296;2023-04-02T03:42:40;94407.61;;;10.55;66.65
6851;BME280;3464;42.728;23.296;2023-04-02T03:45:15;94411.67;;;10.78;66.17
6851;BME280;3464;42.728;23.296;2023-04-02T03:47:50;94406.76;;;10.58;66.68
6851;BME280;3464;42.728;23.296;2023-04-02T03:50:20;94398.75;;;10.64;66.65
6851;BME280;3464;42.728;23.296;2023-04-02T03:52:44;94387.52;;;10.50;66.77
6851;BME280;3464;42.728;23.296;2023-04-02T03:55:12;94396.38;;;10.39;67.03
6851;BME280;3464;42.728;23.296;2023-04-02T04:00:28;94395.97;;;10.33;66.96
6851;BME280;3464;42.728;23.296;2023-04-02T04:02:53;94397.16;;;10.49;66.75
6851;BME280;3464;42.728;23.296;2023-04-02T04:07:55;94395.64;;;10.09;67.73
6851;BME280;3464;42.728;23.296;2023-04-02T04:10:22;94409.48;;;10.03;68.64
6851;BME280;3464;42.728;23.296;2023-04-02T04:12:47;94408.59;;;10.21;68.02
6851;BME280;3464;42.728;23.296;2023-04-02T04:15:21;94410.98;;;10.50;67.24
6851;BME280;3464;42.728;23.296;2023-04-02T04:20:54;94420.69;;;10.36;67.74
6851;BME280;3464;42.728;23.296;2023-04-02T04:23:27;94425.31;;;10.38;67.67
6851;BME280;3464;42.728;23.296;2023-04-02T04:26:00;94430.28;;;10.53;67.06
6851;BME280;3464;42.728;23.296;2023-04-02T04:28:33;94439.72;;;10.89;66.17
6851;BME280;3464;42.728;23.296;2023-04-02T04:31:01;94428.40;;;10.89;66.23
6851;BME280;3464;42.728;23.296;2023-04-02T04:33:39;94432.95;;;10.97;66.12
6851;BME280;3464;42.728;23.296;2023-04-02T04:36:21;94426.16;;;11.08;65.67
6851;BME280;3464;42.728;23.296;2023-04-02T04:38:50;94426.88;;;11.25;65.75
6851;BME280;3464;42.728;23.296;2023-04-02T04:41:22;94427.30;;;10.61;66.45
6851;BME280;3464;42.728;23.296;2023-04-02T04:44:17;94424.57;;;11.52;66.45
6851;BME280;3464;42.728;23.296;2023-04-02T04:46:56;94422.04;;;12.70;62.87
6851;BME280;3464;42.728;23.296;2023-04-02T04:52:18;94423.42;;;15.25;58.44
6851;BME280;3464;42.728;23.296;2023-04-02T04:54:46;94425.05;;;17.05;54.37
6851;BME280;3464;42.728;23.296;2023-04-02T04:57:34;94422.13;;;17.71;51.17
6851;BME280;3464;42.728;23.296;2023-04-02T05:00:19;94420.80;;;18.12;48.12
6851;BME280;3464;42.728;23.296;2023-04-02T05:05:25;94418.44;;;18.44;48.28
6851;BME280;3464;42.728;23.296;2023-04-02T05:07:52;94418.55;;;18.76;47.12
6851;BME280;3464;42.728;23.296;2023-04-02T05:10:29;94415.37;;;19.70;44.30
6851;BME280;3464;42.728;23.296;2023-04-02T05:12:55;94418.09;;;20.48;43.93
6851;BME280;3464;42.728;23.296;2023-04-02T05:15:29;94425.25;;;21.44;40.94
6851;BME280;3464;42.728;23.296;2023-04-02T05:20:57;94419.84;;;21.60;39.46
6851;BME280;3464;42.728;23.296;2023-04-02T05:23:29;94427.86;;;22.90;38.87
6851;BME280;3464;42.728;23.296;2023-04-02T05:26:01;94427.61;;;23.11;36.72
6851;BME280;3464;42.728;23.296;2023-04-02T05:28:29;94430.81;;;22.49;37.84
6851;BME280;3464;42.728;23.296;2023-04-02T05:30:54;94435.80;;;22.61;37.93
6851;BME280;3464;42.728;23.296;2023-04-02T05:33:24;94425.89;;;22.79;37.32
6851;BME280;3464;42.728;23.296;2023-04-02T05:35:52;94425.39;;;23.82;36.79
6851;BME280;3464;42.728;23.296;2023-04-02T05:38:28;94424.41;;;25.57;33.97
6851;BME280;3464;42.728;23.296;2023-04-02T05:40:59;94425.71;;;26.30;33.15
6851;BME280;3464;42.728;23.296;2023-04-02T05:43:26;94429.78;;;25.53;32.99
6851;BME280;3464;42.728;23.296;2023-04-02T05:45:55;94435.22;;;25.76;33.27
6851;BME280;3464;42.728;23.296;2023-04-02T05:48:32;94439.99;;;25.88;32.92
6851;BME280;3464;42.728;23.296;2023-04-02T05:50:59;94441.73;;;26.02;32.27
6851;BME280;3464;42.728;23.296;2023-04-02T05:53:28;94443.21;;;25.79;31.96
6851;BME280;3464;42.728;23.296;2023-04-02T05:56:14;94437.31;;;26.04;31.50
6851;BME280;3464;42.728;23.296;2023-04-02T05:58:40;94438.29;;;27.05;31.18
6851;BME280;3464;42.728;23.296;2023-04-02T06:01:14;94433.28;;;27.52;30.65
6851;BME280;3464;42.728;23.296;2023-04-02T06:03:59;94431.84;;;29.33;28.95
6851;BME280;3464;42.728;23.296;2023-04-02T06:09:08;94431.63;;;29.03;29.00
6851;BME280;3464;42.728;23.296;2023-04-02T06:11:40;94435.30;;;28.49;29.58
6851;BME280;3464;42.728;23.296;2023-04-02T06:14:06;94436.40;;;28.46;29.98
6851;BME280;3464;42.728;23.296;2023-04-02T06:16:32;94440.35;;;27.86;30.19
6851;BME280;3464;42.728;23.296;2023-04-02T06:19:00;94434.91;;;28.88;29.43
6851;BME280;3464;42.728;23.296;2023-04-02T06:21:26;94443.45;;;27.60;29.85
6851;BME280;3464;42.728;23.296;2023-04-02T06:23:55;94438.67;;;27.43;29.72
6851;BME280;3464;42.728;23.296;2023-04-02T06:26:26;94435.26;;;27.30;30.06
6851;BME280;3464;42.728;23.296;2023-04-02T06:29:26;94444.60;;;28.57;29.48
6851;BME280;3464;42.728;23.296;2023-04-02T06:31:35;94440.59;;;28.41;28.88
6851;BME280;3464;42.728;23.296;2023-04-02T06:34:02;94438.22;;;27.86;29.65
6851;BME280;3464;42.728;23.296;2023-04-02T06:36:27;94435.30;;;29.11;28.42
6851;BME280;3464;42.728;23.296;2023-04-02T06:38:54;94430.72;;;29.15;28.13
6851;BME280;3464;42.728;23.296;2023-04-02T06:41:23;94436.86;;;27.44;29.48
6851;BME280;3464;42.728;23.296;2023-04-02T06:43:53;94435.12;;;27.38;30.00
6851;BME280;3464;42.728;23.296;2023-04-02T06:46:22;94446.03;;;26.99;30.16
6851;BME280;3464;42.728;23.296;2023-04-02T06:48:46;94438.55;;;27.93;29.27
6851;BME280;3464;42.728;23.296;2023-04-02T06:51:13;94441.01;;;28.48;29.29
6851;BME280;3464;42.728;23.296;2023-04-02T06:53:43;94441.25;;;28.03;28.97
6851;BME280;3464;42.728;23.296;2023-04-02T06:56:27;94444.41;;;29.66;27.57
6851;BME280;3464;42.728;23.296;2023-04-02T06:58:51;94443.12;;;30.03;27.00
6851;BME280;3464;42.728;23.296;2023-04-02T07:01:21;94448.19;;;30.05;26.77
6851;BME280;3464;42.728;23.296;2023-04-02T07:03:45;94449.35;;;30.23;27.07
6851;BME280;3464;42.728;23.296;2023-04-02T07:06:15;94450.89;;;30.20;27.01
6851;BME280;3464;42.728;23.296;2023-04-02T07:08:41;94459.25;;;30.81;26.86
6851;BME280;3464;42.728;23.296;2023-04-02T07:11:12;94450.78;;;32.76;25.19
6851;BME280;3464;42.728;23.296;2023-04-02T07:13:35;94464.16;;;31.41;25.62
6851;BME280;3464;42.728;23.296;2023-04-02T07:16:02;94464.37;;;27.69;28.88
6851;BME280;3464;42.728;23.296;2023-04-02T07:18:29;94470.35;;;25.44;31.16
6851;BME280;3464;42.728;23.296;2023-04-02T07:20:55;94473.75;;;24.66;31.91
6851;BME280;3464;42.728;23.296;2023-04-02T07:23:24;94475.53;;;23.82;33.53
6851;BME280;3464;42.728;23.296;2023-04-02T07:25:51;94474.52;;;24.15;33.70
6851;BME280;3464;42.728;23.296;2023-04-02T07:28:17;94483.85;;;23.07;35.43
6851;BME280;3464;42.728;23.296;2023-04-02T07:30:43;94483.73;;;21.81;37.26
6851;BME280;3464;42.728;23.296;2023-04-02T07:33:13;94475.48;;;21.65;37.45
6851;BME280;3464;42.728;23.296;2023-04-02T07:35:39;94482.63;;;21.40;37.32
6851;BME280;3464;42.728;23.296;2023-04-02T07:38:06;94487.35;;;21.02;38.82
6851;BME280;3464;42.728;23.296;2023-04-02T07:40:32;94489.50;;;20.62;38.52
6851;BME280;3464;42.728;23.296;2023-04-02T07:42:59;94482.30;;;20.61;39.12
6851;BME280;3464;42.728;23.296;2023-04-02T07:45:25;94487.51;;;20.78;38.31
6851;BME280;3464;42.728;23.296;2023-04-02T07:47:52;94485.00;;;20.87;38.16
6851;BME280;3464;42.728;23.296;2023-04-02T07:50:19;94490.55;;;20.77;38.34
6851;BME280;3464;42.728;23.296;2023-04-02T07:52:48;94489.50;;;20.12;39.28
6851;BME280;3464;42.728;23.296;2023-04-02T07:55:15;94491.16;;;19.13;39.53
6851;BME280;3464;42.728;23.296;2023-04-02T07:57:49;94488.89;;;19.84;39.56
6851;BME280;3464;42.728;23.296;2023-04-02T08:00:15;94502.25;;;19.69;40.29
6851;BME280;3464;42.728;23.296;2023-04-02T08:02:43;94495.78;;;19.38;40.85
6851;BME280;3464;42.728;23.296;2023-04-02T08:05:09;94490.47;;;18.85;41.31
6851;BME280;3464;42.728;23.296;2023-04-02T08:07:36;94496.23;;;18.54;41.95
6851;BME280;3464;42.728;23.296;2023-04-02T08:10:03;94493.72;;;18.89;42.16
6851;BME280;3464;42.728;23.296;2023-04-02T08:12:32;94493.20;;;19.82;41.20
6851;BME280;3464;42.728;23.296;2023-04-02T08:15:03;94496.09;;;19.30;41.06
6851;BME280;3464;42.728;23.296;2023-04-02T08:17:29;94496.58;;;19.94;40.62
6851;BME280;3464;42.728;23.296;2023-04-02T08:19:57;94498.58;;;20.18;39.54
6851;BME280;3464;42.728;23.296;2023-04-02T08:22:34;94494.16;;;20.12;39.54
6851;BME280;3464;42.728;23.296;2023-04-02T08:25:01;94502.48;;;20.37;38.96
6851;BME280;3464;42.728;23.296;2023-04-02T08:27:28;94512.78;;;19.71;40.08
6851;BME280;3464;42.728;23.296;2023-04-02T08:29:57;94506.57;;;19.67;40.09
6851;BME280;3464;42.728;23.296;2023-04-02T08:32:25;94511.89;;;19.61;39.60
6851;BME280;3464;42.728;23.296;2023-04-02T08:34:52;94505.81;;;19.97;39.54
6851;BME280;3464;42.728;23.296;2023-04-02T08:37:19;94497.59;;;20.91;38.93
6851;BME280;3464;42.728;23.296;2023-04-02T08:39:45;94503.20;;;21.66;38.36
6851;BME280;3464;42.728;23.296;2023-04-02T08:42:23;94497.40;;;20.67;39.38
6851;BME280;3464;42.728;23.296;2023-04-02T08:45:08;94502.47;;;20.98;38.00
6851;BME280;3464;42.728;23.296;2023-04-02T08:47:33;94497.67;;;21.47;38.00
6851;BME280;3464;42.728;23.296;2023-04-02T08:50:02;94507.34;;;21.51;37.95
6851;BME280;3464;42.728;23.296;2023-04-02T08:52:31;94505.21;;;21.79;37.28
6851;BME280;3464;42.728;23.296;2023-04-02T08:54:56;94510.19;;;21.25;37.62
6851;BME280;3464;42.728;23.296;2023-04-02T08:57:42;94506.91;;;21.23;38.10
6851;BME280;3464;42.728;23.296;2023-04-02T09:00:22;94503.47;;;21.32;37.35
6851;BME280;3464;42.728;23.296;2023-04-02T09:02:43;94498.11;;;22.11;37.27
6851;BME280;3464;42.728;23.296;2023-04-02T09:05:14;94502.95;;;20.66;37.66
6851;BME280;3464;42.728;23.296;2023-04-02T09:07:35;94507.56;;;20.68;38.14
6851;BME280;3464;42.728;23.296;2023-04-02T09:10:02;94507.20;;;21.54;37.02
6851;BME280;3464;42.728;23.296;2023-04-02T09:12:29;94503.67;;;22.28;36.55
6851;BME280;3464;42.728;23.296;2023-04-02T09:15:01;94501.02;;;21.58;36.68
6851;BME280;3464;42.728;23.296;2023-04-02T09:17:25;94504.44;;;22.04;36.60
6851;BME280;3464;42.728;23.296;2023-04-02T09:20:00;94501.48;;;21.39;36.74
6851;BME280;3464;42.728;23.296;2023-04-02T09:22:27;94499.30;;;22.39;36.19
6851;BME280;3464;42.728;23.296;2023-04-02T09:24:54;94497.47;;;22.15;35.97
6851;BME280;3464;42.728;23.296;2023-04-02T09:27:21;94500.95;;;21.96;36.69
6851;BME280;3464;42.728;23.296;2023-04-02T09:29:47;94505.23;;;21.32;37.02
6851;BME280;3464;42.728;23.296;2023-04-02T09:35:04;94493.47;;;21.55;36.80
6851;BME280;3464;42.728;23.296;2023-04-02T09:37:20;94495.17;;;21.74;36.91
6851;BME280;3464;42.728;23.296;2023-04-02T09:39:46;94483.94;;;22.56;35.02
6851;BME280;3464;42.728;23.296;2023-04-02T09:42:35;94490.28;;;22.82;35.71
6851;BME280;3464;42.728;23.296;2023-04-02T09:45:14;94489.30;;;23.50;35.23
6851;BME280;3464;42.728;23.296;2023-04-02T09:47:40;94480.78;;;23.72;33.73
6851;BME280;3464;42.728;23.296;2023-04-02T09:50:18;94482.11;;;23.56;34.28
6851;BME280;3464;42.728;23.296;2023-04-02T09:52:40;94479.00;;;22.60;34.86
6851;BME280;3464;42.728;23.296;2023-04-02T10:08:30;94473.18;;;22.57;34.69
6851;BME280;3464;42.728;23.296;2023-04-02T10:24:25;94462.95;;;22.48;34.49
6851;BME280;3464;42.728;23.296;2023-04-02T10:30:16;94460.50;;;21.39;35.61
6851;BME280;3464;42.728;23.296;2023-04-02T10:32:52;94460.45;;;22.04;35.03
6851;BME280;3464;42.728;23.296;2023-04-02T10:38:42;94464.74;;;21.85;34.49
6851;BME280;3464;42.728;23.296;2023-04-02T10:41:29;94458.45;;;22.26;34.38
6851;BME280;3464;42.728;23.296;2023-04-02T10:44:20;94456.90;;;22.15;35.43
6851;BME280;3464;42.728;23.296;2023-04-02T10:46:55;94456.58;;;21.22;36.14
6851;BME280;3464;42.728;23.296;2023-04-02T10:49:29;94461.39;;;22.19;34.73
6851;BME280;3464;42.728;23.296;2023-04-02T10:51:58;94452.30;;;22.47;35.21
6851;BME280;3464;42.728;23.296;2023-04-02T10:54:35;94451.91;;;22.63;34.40
6851;BME280;3464;42.728;23.296;2023-04-02T10:59:58;94440.34;;;22.88;33.94
6851;BME280;3464;42.728;23.296;2023-04-02T11:02:28;94442.58;;;22.86;34.16
6851;BME280;3464;42.728;23.296;2023-04-02T11:04:53;94441.69;;;23.28;33.39
6851;BME280;3464;42.728;23.296;2023-04-02T11:07:23;94437.78;;;22.88;33.12
6851;BME280;3464;42.728;23.296;2023-04-02T11:09:55;94449.80;;;21.76;33.61
6851;BME280;3464;42.728;23.296;2023-04-02T11:15:18;94446.55;;;22.09;33.75
6851;BME280;3464;42.728;23.296;2023-04-02T11:17:45;94438.95;;;21.98;36.85
6851;BME280;3464;42.728;23.296;2023-04-02T11:23:26;94453.51;;;21.24;35.30
6851;BME280;3464;42.728;23.296;2023-04-02T11:29:17;94444.85;;;22.08;33.58
6851;BME280;3464;42.728;23.296;2023-04-02T11:31:44;94432.36;;;21.48;34.30
6851;BME280;3464;42.728;23.296;2023-04-02T11:34:13;94434.22;;;21.71;35.40
6851;BME280;3464;42.728;23.296;2023-04-02T11:42:21;94429.78;;;23.10;34.45
6851;BME280;3464;42.728;23.296;2023-04-02T11:44:47;94419.72;;;22.23;34.45
6851;BME280;3464;42.728;23.296;2023-04-02T11:47:20;94431.91;;;21.39;34.66
6851;BME280;3464;42.728;23.296;2023-04-02T11:50:19;94424.45;;;21.35;34.31
6851;BME280;3464;42.728;23.296;2023-04-02T11:52:37;94428.30;;;20.58;35.27
6851;BME280;3464;42.728;23.296;2023-04-02T12:07:44;94409.96;;;21.34;35.38
6851;BME280;3464;42.728;23.296;2023-04-02T12:10:20;94414.77;;;21.32;34.58
6851;BME280;3464;42.728;23.296;2023-04-02T12:16:15;94417.25;;;22.30;33.28
6851;BME280;3464;42.728;23.296;2023-04-02T12:18:46;94420.10;;;22.74;33.25
6851;BME280;3464;42.728;23.296;2023-04-02T12:21:24;94417.59;;;22.06;33.00
6851;BME280;3464;42.728;23.296;2023-04-02T12:23:50;94420.52;;;22.41;32.70
6851;BME280;3464;42.728;23.296;2023-04-02T12:26:28;94415.54;;;22.13;32.82
6851;BME280;3464;42.728;23.296;2023-04-02T12:29:31;94415.13;;;22.71;32.71
6851;BME280;3464;42.728;23.296;2023-04-02T12:31:43;94417.63;;;22.23;32.42
6851;BME280;3464;42.728;23.296;2023-04-02T12:34:14;94418.09;;;21.15;33.55
6851;BME280;3464;42.728;23.296;2023-04-02T12:36:51;94411.16;;;20.89;33.70
6851;BME280;3464;42.728;23.296;2023-04-02T12:39:16;94414.96;;;20.32;34.36
6851;BME280;3464;42.728;23.296;2023-04-02T12:41:43;94409.75;;;20.92;34.22
6851;BME280;3464;42.728;23.296;2023-04-02T12:44:15;94399.66;;;21.17;33.65
6851;BME280;3464;42.728;23.296;2023-04-02T12:46:43;94409.50;;;20.30;34.69
6851;BME280;3464;42.728;23.296;2023-04-02T12:52:19;94398.41;;;20.98;34.25
6851;BME280;3464;42.728;23.296;2023-04-02T12:54:50;94389.52;;;21.24;33.78
6851;BME280;3464;42.728;23.296;2023-04-02T12:57:37;94394.20;;;20.68;34.02
6851;BME280;3464;42.728;23.296;2023-04-02T13:02:44;94396.25;;;20.41;34.19
6851;BME280;3464;42.728;23.296;2023-04-02T13:05:12;94400.53;;;20.40;34.64
6851;BME280;3464;42.728;23.296;2023-04-02T13:07:38;94391.53;;;20.99;34.22
6851;BME280;3464;42.728;23.296;2023-04-02T13:10:21;94391.31;;;20.94;34.13
6851;BME280;3464;42.728;23.296;2023-04-02T13:12:36;94390.11;;;21.02;33.58
6851;BME280;3464;42.728;23.296;2023-04-02T13:18:21;94378.92;;;21.32;33.55
6851;BME280;3464;42.728;23.296;2023-04-02T13:20:53;94388.60;;;20.60;33.93
6851;BME280;3464;42.728;23.296;2023-04-02T13:23:35;94385.48;;;20.14;34.36
6851;BME280;3464;42.728;23.296;2023-04-02T13:26:15;94377.97;;;20.30;33.78
6851;BME280;3464;42.728;23.296;2023-04-02T13:28:41;94377.65;;;20.57;33.87
6851;BME280;3464;42.728;23.296;2023-04-02T13:31:13;94378.34;;;20.88;33.45
6851;BME280;3464;42.728;23.296;2023-04-02T13:33:38;94381.25;;;21.00;33.10
6851;BME280;3464;42.728;23.296;2023-04-02T13:36:06;94383.48;;;20.79;32.93
6851;BME280;3464;42.728;23.296;2023-04-02T13:38:33;94371.69;;;21.22;31.82
6851;BME280;3464;42.728;23.296;2023-04-02T13:41:02;94381.23;;;20.43;32.50
6851;BME280;3464;42.728;23.296;2023-04-02T13:43:36;94367.64;;;20.62;33.00
6851;BME280;3464;42.728;23.296;2023-04-02T13:46:04;94373.77;;;19.98;33.18
6851;BME280;3464;42.728;23.296;2023-04-02T13:48:33;94368.48;;;19.51;33.70
6851;BME280;3464;42.728;23.296;2023-04-02T13:51:00;94378.14;;;20.26;33.35
6851;BME280;3464;42.728;23.296;2023-04-02T13:53:33;94363.87;;;20.50;33.24
6851;BME280;3464;42.728;23.296;2023-04-02T13:56:00;94366.09;;;20.29;33.46
6851;BME280;3464;42.728;23.296;2023-04-02T13:58:35;94361.50;;;20.65;33.26
6851;BME280;3464;42.728;23.296;2023-04-02T14:01:04;94362.05;;;20.44;33.30
6851;BME280;3464;42.728;23.296;2023-04-02T14:03:31;94367.05;;;20.37;33.33
6851;BME280;3464;42.728;23.296;2023-04-02T14:06:06;94374.56;;;20.69;32.86
6851;BME280;3464;42.728;23.296;2023-04-02T14:08:55;94370.33;;;20.59;33.11
6851;BME280;3464;42.728;23.296;2023-04-02T14:11:23;94375.64;;;20.54;33.39
6851;BME280;3464;42.728;23.296;2023-04-02T14:14:00;94368.31;;;20.84;33.15
6851;BME280;3464;42.728;23.296;2023-04-02T14:16:32;94361.05;;;20.47;32.97
6851;BME280;3464;42.728;23.296;2023-04-02T14:19:19;94357.98;;;20.96;32.49
6851;BME280;3464;42.728;23.296;2023-04-02T14:22:28;94358.50;;;21.22;31.89
6851;BME280;3464;42.728;23.296;2023-04-02T14:24:47;94361.22;;;21.09;31.99
6851;BME280;3464;42.728;23.296;2023-04-02T14:27:52;94361.84;;;20.57;32.43
6851;BME280;3464;42.728;23.296;2023-04-02T14:30:04;94361.56;;;20.92;32.52
6851;BME280;3464;42.728;23.296;2023-04-02T14:32:35;94359.31;;;21.13;32.52
6851;BME280;3464;42.728;23.296;2023-04-02T14:35:09;94351.47;;;20.89;32.15
6851;BME280;3464;42.728;23.296;2023-04-02T14:37:42;94354.57;;;20.96;32.25
6851;BME280;3464;42.728;23.296;2023-04-02T14:40:12;94352.25;;;20.62;32.55
6851;BME280;3464;42.728;23.296;2023-04-02T14:42:43;94361.63;;;20.43;32.33
6851;BME280;3464;42.728;23.296;2023-04-02T14:45:17;94348.67;;;20.38;32.43
6851;BME280;3464;42.728;23.296;2023-04-02T14:47:44;94355.13;;;20.56;32.66
6851;BME280;3464;42.728;23.296;2023-04-02T14:50:24;94357.91;;;20.41;32.16
6851;BME280;3464;42.728;23.296;2023-04-02T14:52:49;94351.89;;;20.42;32.43
6851;BME280;3464;42.728;23.296;2023-04-02T14:55:26;94356.45;;;20.45;32.30
6851;BME280;3464;42.728;23.296;2023-04-02T14:57:53;94360.28;;;20.45;31.94
6851;BME280;3464;42.728;23.296;2023-04-02T15:00:36;94362.78;;;20.65;31.90
6851;BME280;3464;42.728;23.296;2023-04-02T15:03:09;94364.26;;;20.60;32.17
6851;BME280;3464;42.728;23.296;2023-04-02T15:05:44;94363.60;;;20.56;32.23
6851;BME280;3464;42.728;23.296;2023-04-02T15:08:21;94369.56;;;20.75;32.17
6851;BME280;3464;42.728;23.296;2023-04-02T15:11:11;94370.09;;;20.63;32.57
6851;BME280;3464;42.728;23.296;2023-04-02T15:13:37;94367.27;;;20.11;32.67
6851;BME280;3464;42.728;23.296;2023-04-02T15:16:09;94376.59;;;20.13;32.83
6851;BME280;3464;42.728;23.296;2023-04-02T15:18:34;94372.08;;;19.78;33.12
6851;BME280;3464;42.728;23.296;2023-04-02T15:21:34;94369.89;;;19.99;33.10
6851;BME280;3464;42.728;23.296;2023-04-02T15:24:03;94373.54;;;19.83;32.97
6851;BME280;3464;42.728;23.296;2023-04-02T15:26:35;94372.92;;;19.98;32.82